Terminal Aerodrome Forecast
Issued by NWS

Home | Current Version | Previous Version | Graphics & Text | Print | Product List | Glossary On
Versions: 1 2 3 4 5 6 7 8 9 10 11 12 13 14 15 16 17 18 19 20 21 22
000
FTUS43 KGRB 230800 AAA
TAFATW
TAF AMD
KATW 230839Z 2309/2406 18010KT 5SM BR SCT006 OVC012
      TEMPO 2309/2312 2SM -DZ BR OVC006
     FM231400 18011KT 5SM -DZ BR OVC010
     FM232100 15007KT 2SM -RA BR OVC006
     FM240100 13005KT 1SM RA BR OVC002=

USA.gov is the U.S. government's official web portal to all federal, state and local government web resources and services.